Hlavní strana
METAR-TAF:

METAR-TAF

Letiště :

Wellington, Nový Zéland

zeměpisná šířka: 41-20S, zeměpisná délka: 174-48E, výška: 12 m

Aktuální stav počasí

Zpráva byla vytvořena před 29 minutami, v 12:30 UTC
Severní vítr 6 kt, proměnlivý mezi západoseverozápadním a severoseverovýchodním
Teplota 9°C
Vlhkost vzduchu 57%
Tlak 998 hPa
Viditelnost 10 km a více

METAR: NZWN 251230Z AUTO 35006KT 290V020 9999 NCD 09/01 Q0998 NOSIG

Čas: 00:59 (12:59 UTC)

Předpověď počasí

Zpráva byla vytvořena před 1 hodinou a 56 minutami, v 11:03 UTC
Předpověď platná od 25 v 12 UTC do 26 v 12 UTC
Severní vítr 12 kt
Viditelnost 10 km a více
Polojasno ve výšce 6000 ft
Změna
od 26 v 00 UTC do 26 v 02 UTC
Jižní vítr 10 kt
Dočasný
od 26 v 00 UTC do 26 v 03 UTC
Viditelnost: 7000 m
dešťové přeháňky

TAF: NZWN 251103Z 2512/2612 36012KT 9999 SCT060 BECMG 2600/2602 18010KT TEMPO 2600/2603 7000 SHRA

Stav a předpovědi počasí z více než 4 000 letišť (zprávy METAR a TAF).

Červené a žluté tečky na mapě představují dostupné meteorologické stanice.

Když kurzor umístíte na tečku, zobrazí se název stanice.

Pak kliknutím zobrazíte stav a předpověď počasí.

Chcete-li změnit mapu, kliknutím na zelené tlačítko se znaménkem +mapu přiblížíte, kliknutím na zelené tlačítko se znaménkem – mapu oddálíte a kliknutím na zelené šipky přejdete na sousední mapy.


METAR-TAF: